Time;durP1;ratioP1;P1;durP2;ratioP2;P2;SDS_P1;SDS_P2;PMS_P1;PMS_P2;Temp;Humidity;BMP_temperature;BMP_pressure;BME280_temperature;BME280_humidity;BME280_pressure;Samples;Min_cycle;Max_cycle;Signal;HPM_P1;HPM_P2
2022/02/21 00:00:17;;;;;;;6.03;5.80;;;5.90;99.90;;;;;;4978445;28;20810;-68
2022/02/21 00:02:44;;;;;;;7.00;6.60;;;5.90;99.90;;;;;;4992406;28;20260;-68
2022/02/21 00:05:11;;;;;;;7.13;6.63;;;5.90;99.90;;;;;;4985306;28;20181;-68
2022/02/21 00:07:37;;;;;;;8.20;6.60;;;5.90;99.90;;;;;;4973117;28;20188;-68
2022/02/21 00:10:04;;;;;;;6.60;6.20;;;5.90;99.90;;;;;;4977015;28;20197;-68
2022/02/21 00:12:30;;;;;;;7.03;6.60;;;5.90;99.90;;;;;;4992260;28;20204;-68
2022/02/21 00:14:56;;;;;;;7.77;7.00;;;5.90;99.90;;;;;;4989500;28;20591;-68
2022/02/21 00:17:21;;;;;;;7.17;6.47;;;5.90;99.90;;;;;;4973135;28;20174;-68
2022/02/21 00:19:47;;;;;;;9.50;6.60;;;5.90;99.90;;;;;;4973436;28;20216;-68
2022/02/21 00:22:13;;;;;;;6.37;6.07;;;6.00;99.90;;;;;;4991149;28;20185;-68
2022/02/21 00:24:38;;;;;;;6.60;6.30;;;6.00;99.90;;;;;;4974717;28;20193;-68
2022/02/21 00:27:04;;;;;;;8.07;7.33;;;6.00;99.90;;;;;;4972970;28;20233;-68
2022/02/21 00:29:29;;;;;;;8.60;6.40;;;6.10;99.90;;;;;;4987139;28;20204;-68
2022/02/21 00:31:55;;;;;;;6.97;6.50;;;6.10;99.90;;;;;;4991992;28;20192;-67
2022/02/21 00:34:21;;;;;;;8.10;6.67;;;6.10;99.90;;;;;;4977902;28;20181;-67
2022/02/21 00:36:47;;;;;;;7.73;6.93;;;6.10;99.90;;;;;;4972781;28;20192;-68
2022/02/21 00:39:12;;;;;;;7.27;6.73;;;6.10;99.90;;;;;;4985427;28;20550;-68
2022/02/21 00:41:38;;;;;;;8.20;6.70;;;6.10;99.90;;;;;;4990925;28;20188;-67
2022/02/21 00:44:04;;;;;;;7.33;6.70;;;6.10;99.90;;;;;;4980494;28;20189;-68
2022/02/21 00:46:30;;;;;;;8.50;6.27;;;6.20;99.90;;;;;;4977097;28;20204;-68
2022/02/21 00:48:55;;;;;;;6.50;6.20;;;6.20;99.90;;;;;;4991990;28;20236;-68
2022/02/21 00:51:21;;;;;;;7.97;7.37;;;6.30;99.90;;;;;;4986277;28;20301;-68
2022/02/21 00:53:47;;;;;;;8.17;7.37;;;6.50;99.90;;;;;;4972194;28;20220;-68
2022/02/21 00:56:13;;;;;;;6.93;6.23;;;6.60;99.90;;;;;;4979034;28;20243;-68
2022/02/21 00:58:39;;;;;;;7.93;6.90;;;6.60;99.90;;;;;;4986641;28;20173;-67
2022/02/21 01:01:04;;;;;;;10.67;9.93;;;6.60;99.90;;;;;;4972914;28;20678;-68
2022/02/21 01:03:30;;;;;;;12.70;12.13;;;6.30;99.90;;;;;;4975744;28;20259;-68
2022/02/21 01:05:55;;;;;;;8.20;7.70;;;5.40;99.90;;;;;;4991220;28;20219;-68
2022/02/21 01:08:21;;;;;;;14.97;8.50;;;4.90;99.90;;;;;;4988830;28;20192;-68
2022/02/21 01:10:46;;;;;;;7.33;6.87;;;4.80;99.90;;;;;;4971235;28;20209;-67
2022/02/21 01:13:12;;;;;;;7.00;6.70;;;4.80;99.90;;;;;;4972453;28;20217;-68
2022/02/21 01:15:38;;;;;;;7.50;6.90;;;4.80;99.90;;;;;;4972366;28;20666;-67
2022/02/21 01:18:04;;;;;;;7.13;6.63;;;4.80;99.90;;;;;;4974286;28;20252;-68
2022/02/21 01:20:29;;;;;;;8.63;7.00;;;4.80;99.90;;;;;;4994286;28;20215;-68
2022/02/21 01:22:55;;;;;;;7.10;6.50;;;4.70;99.90;;;;;;4993959;28;20560;-68
2022/02/21 01:25:20;;;;;;;7.87;7.47;;;4.70;99.90;;;;;;4977652;28;20667;-68
2022/02/21 01:27:46;;;;;;;6.60;6.30;;;4.80;99.90;;;;;;4974561;28;20185;-68
2022/02/21 01:30:12;;;;;;;8.23;6.70;;;4.80;99.90;;;;;;4989256;28;20204;-68
2022/02/21 01:32:38;;;;;;;13.07;7.53;;;4.80;99.90;;;;;;4994989;28;20201;-68
2022/02/21 01:35:05;;;;;;;6.57;6.10;;;4.90;99.90;;;;;;4982421;28;20268;-68
2022/02/21 01:37:31;;;;;;;7.77;6.20;;;4.90;99.90;;;;;;4974523;28;20177;-68
2022/02/21 01:39:56;;;;;;;8.23;7.53;;;4.90;99.90;;;;;;4977957;28;20276;-68
2022/02/21 01:42:22;;;;;;;7.23;6.67;;;5.00;99.90;;;;;;4995049;28;20188;-68
2022/02/21 01:44:49;;;;;;;7.90;7.13;;;5.10;99.90;;;;;;4993641;28;20185;-68
2022/02/21 01:47:20;;;;;;;7.77;7.27;;;5.10;99.90;;;;;;4995279;28;20184;-68
2022/02/21 01:49:46;;;;;;;7.00;6.60;;;5.20;99.90;;;;;;4989611;28;20260;-68
2022/02/21 01:52:13;;;;;;;7.17;6.60;;;5.20;99.90;;;;;;4987563;28;20208;-68
2022/02/21 01:54:38;;;;;;;9.80;7.20;;;5.20;99.90;;;;;;4995009;28;20252;-68
2022/02/21 01:57:05;;;;;;;7.47;6.50;;;5.30;99.90;;;;;;4994246;28;20264;-68
2022/02/21 01:59:32;;;;;;;8.13;7.27;;;5.30;99.90;;;;;;4993507;28;20201;-68
2022/02/21 02:01:58;;;;;;;7.83;7.50;;;5.30;99.90;;;;;;4990371;28;20260;-68
2022/02/21 02:04:25;;;;;;;8.97;8.30;;;5.40;99.90;;;;;;4975581;28;20261;-68
2022/02/21 02:06:52;;;;;;;7.53;6.87;;;5.40;99.90;;;;;;4976345;28;20710;-68
2022/02/21 02:09:17;;;;;;;11.73;7.00;;;5.40;99.90;;;;;;4994849;28;20235;-69
2022/02/21 02:11:44;;;;;;;9.03;8.03;;;5.30;99.90;;;;;;4993603;28;20201;-68
2022/02/21 02:14:32;;;;;;;7.37;6.67;;;5.40;99.90;;;;;;4974980;28;20655;-68
2022/02/21 02:17:15;;;;;;;6.87;6.07;;;5.50;99.90;;;;;;4975808;28;20186;-68
2022/02/21 02:19:43;;;;;;;7.03;6.53;;;5.50;99.90;;;;;;4995125;28;20771;-68
2022/02/21 02:22:17;;;;;;;8.43;7.60;;;5.50;99.90;;;;;;4991338;28;20186;-68
2022/02/21 02:24:45;;;;;;;8.37;6.73;;;5.40;99.90;;;;;;4974913;28;20261;-68
2022/02/21 02:27:12;;;;;;;7.40;6.73;;;5.40;99.90;;;;;;4977795;28;20639;-68
2022/02/21 02:29:40;;;;;;;7.83;7.43;;;5.30;99.90;;;;;;4993829;28;20275;-67
2022/02/21 02:32:08;;;;;;;8.03;7.40;;;5.20;99.90;;;;;;4991394;28;20191;-68
2022/02/21 02:34:34;;;;;;;7.07;6.47;;;5.20;99.90;;;;;;4976095;28;20174;-68
2022/02/21 02:37:00;;;;;;;7.70;6.27;;;5.20;99.90;;;;;;4974823;28;20643;-68
2022/02/21 02:39:27;;;;;;;7.97;7.40;;;5.20;99.90;;;;;;4974710;28;20232;-68
2022/02/21 02:41:53;;;;;;;8.23;7.43;;;5.20;99.90;;;;;;4974447;28;20177;-68
2022/02/21 02:44:19;;;;;;;7.27;6.77;;;5.30;99.90;;;;;;4990636;28;20181;-68
2022/02/21 02:46:45;;;;;;;6.87;6.47;;;5.30;99.90;;;;;;4993896;28;20528;-68
2022/02/21 02:49:10;;;;;;;7.27;6.60;;;5.30;99.90;;;;;;4977860;28;20208;-68
2022/02/21 02:51:36;;;;;;;7.77;7.17;;;5.20;99.90;;;;;;4974444;28;20461;-68
2022/02/21 02:54:07;;;;;;;7.67;7.03;;;5.20;99.90;;;;;;4986660;28;20572;-67
2022/02/21 02:56:36;;;;;;;10.67;6.70;;;5.10;99.90;;;;;;4992461;28;20575;-67
2022/02/21 02:59:03;;;;;;;7.33;6.73;;;4.90;99.90;;;;;;4973095;28;20201;-67
2022/02/21 03:01:28;;;;;;;6.80;6.50;;;4.80;99.90;;;;;;4974321;28;20658;-67
2022/02/21 03:03:54;;;;;;;6.50;6.10;;;4.60;99.90;;;;;;4972832;28;20259;-67
2022/02/21 03:06:20;;;;;;;6.97;6.53;;;4.50;99.90;;;;;;4984280;28;20297;-67
2022/02/21 03:08:45;;;;;;;6.80;6.27;;;4.40;99.90;;;;;;4993594;28;20658;-67
2022/02/21 03:11:11;;;;;;;8.27;7.53;;;4.40;99.90;;;;;;4984817;28;20257;-68
2022/02/21 03:13:37;;;;;;;8.10;7.60;;;4.40;99.90;;;;;;4972242;28;20296;-67
2022/02/21 03:16:03;;;;;;;7.30;6.67;;;4.40;99.90;;;;;;4980379;28;20177;-67
2022/02/21 03:18:28;;;;;;;9.20;7.23;;;4.40;99.90;;;;;;4993288;28;20181;-67
2022/02/21 03:20:54;;;;;;;7.33;6.90;;;4.50;99.90;;;;;;4988286;28;20198;-67
2022/02/21 03:23:20;;;;;;;6.80;6.27;;;4.50;99.90;;;;;;4973642;28;20237;-67
2022/02/21 03:25:45;;;;;;;7.47;6.80;;;4.60;99.90;;;;;;4976363;28;20221;-67
2022/02/21 03:28:11;;;;;;;7.23;6.80;;;4.60;99.90;;;;;;4993199;28;20187;-67
2022/02/21 03:30:37;;;;;;;7.33;6.60;;;4.60;99.90;;;;;;4990649;28;20193;-67
2022/02/21 03:33:03;;;;;;;7.93;7.43;;;4.60;99.90;;;;;;4991147;28;20236;-67
2022/02/21 03:35:29;;;;;;;8.57;7.70;;;4.60;99.90;;;;;;4993518;28;20169;-67
2022/02/21 03:37:55;;;;;;;7.73;7.13;;;4.60;99.90;;;;;;4973800;28;20178;-67
2022/02/21 03:40:20;;;;;;;9.30;7.77;;;4.60;99.90;;;;;;4972926;28;20189;-67
2022/02/21 03:42:46;;;;;;;10.00;7.63;;;4.70;99.90;;;;;;4988703;28;20185;-67
2022/02/21 03:45:12;;;;;;;9.33;8.23;;;4.80;99.90;;;;;;4992943;28;20180;-67
2022/02/21 03:47:38;;;;;;;16.63;15.20;;;4.80;99.90;;;;;;4977314;28;20279;-68
2022/02/21 03:50:04;;;;;;;28.50;27.10;;;4.80;99.90;;;;;;4972183;28;20240;-69
2022/02/21 03:52:30;;;;;;;8.10;7.70;;;4.20;99.90;;;;;;4986478;28;20220;-69
2022/02/21 03:54:55;;;;;;;7.73;7.33;;;3.90;99.90;;;;;;4991378;28;20173;-69
2022/02/21 03:57:21;;;;;;;8.97;8.40;;;3.50;99.90;;;;;;4979532;28;20181;-69
2022/02/21 03:59:46;;;;;;;8.70;8.20;;;3.00;99.90;;;;;;4972953;28;20667;-69
2022/02/21 04:02:12;;;;;;;7.30;6.90;;;2.50;99.90;;;;;;4972821;28;20181;-70
2022/02/21 04:04:38;;;;;;;7.17;6.80;;;2.20;99.90;;;;;;4972109;28;20177;-70
2022/02/21 04:07:04;;;;;;;6.67;6.27;;;2.00;99.90;;;;;;4979747;28;20231;-69
2022/02/21 04:09:29;;;;;;;8.30;7.90;;;1.90;99.90;;;;;;4991271;28;20251;-69
2022/02/21 04:11:55;;;;;;;7.53;7.00;;;1.90;99.90;;;;;;4984353;28;20169;-68
2022/02/21 04:14:20;;;;;;;8.37;7.77;;;1.90;99.90;;;;;;4972998;28;20293;-69
2022/02/21 04:16:46;;;;;;;6.83;6.47;;;2.00;99.90;;;;;;4977064;28;20197;-69
2022/02/21 04:19:12;;;;;;;7.20;6.80;;;2.00;99.90;;;;;;4991093;28;20208;-69
2022/02/21 04:21:38;;;;;;;6.80;6.50;;;2.10;99.90;;;;;;4988389;28;20569;-68
2022/02/21 04:24:04;;;;;;;7.33;6.93;;;2.20;99.90;;;;;;4972554;28;20181;-69
2022/02/21 04:26:29;;;;;;;7.70;7.10;;;2.20;99.90;;;;;;4973490;28;20181;-69
2022/02/21 04:28:55;;;;;;;7.30;6.70;;;2.30;99.90;;;;;;4971878;28;20201;-69
2022/02/21 04:31:21;;;;;;;8.70;8.13;;;2.40;99.90;;;;;;4971802;28;20269;-68
2022/02/21 04:33:47;;;;;;;8.47;7.67;;;2.50;99.90;;;;;;4990458;28;20270;-68
2022/02/21 04:36:14;;;;;;;9.17;8.37;;;2.60;99.90;;;;;;4990951;28;20183;-69
2022/02/21 04:38:40;;;;;;;9.00;8.17;;;2.70;99.90;;;;;;4988556;28;20590;-68
2022/02/21 04:41:06;;;;;;;9.77;8.93;;;2.70;99.90;;;;;;4992248;28;20172;-69
2022/02/21 04:43:32;;;;;;;11.60;8.47;;;2.70;99.90;;;;;;4976435;28;20200;-68
2022/02/21 04:45:57;;;;;;;10.70;7.67;;;2.70;99.90;;;;;;4987382;28;20180;-69
2022/02/21 04:48:24;;;;;;;8.23;7.63;;;2.80;99.90;;;;;;4978642;28;20192;-68
2022/02/21 04:50:50;;;;;;;12.30;9.27;;;2.90;99.90;;;;;;4971441;28;20519;-68
2022/02/21 04:53:16;;;;;;;10.67;9.93;;;3.00;99.90;;;;;;4986438;28;20303;-69
2022/02/21 04:55:42;;;;;;;11.63;9.73;;;3.10;99.90;;;;;;4986761;28;20182;-69
2022/02/21 04:58:07;;;;;;;8.43;7.80;;;3.20;99.90;;;;;;4977585;28;20183;-69
2022/02/21 05:00:33;;;;;;;9.50;8.60;;;3.30;99.90;;;;;;4975185;28;20200;-69
2022/02/21 05:02:59;;;;;;;8.20;7.40;;;3.40;99.90;;;;;;4980701;28;20181;-69
2022/02/21 05:05:24;;;;;;;13.53;8.60;;;3.50;99.90;;;;;;4995976;28;20179;-69
2022/02/21 05:07:50;;;;;;;10.20;8.27;;;3.50;99.90;;;;;;4991223;28;20651;-68
2022/02/21 05:10:16;;;;;;;12.10;8.40;;;3.50;99.90;;;;;;4975198;28;20198;-68
2022/02/21 05:12:41;;;;;;;14.67;9.90;;;3.70;99.90;;;;;;4978219;28;20209;-68
2022/02/21 05:15:09;;;;;;;13.27;8.50;;;3.90;99.90;;;;;;4994717;28;20184;-68
2022/02/21 05:17:35;;;;;;;8.03;7.37;;;4.10;99.90;;;;;;4993431;28;20208;-68
2022/02/21 05:20:01;;;;;;;9.80;8.97;;;4.30;99.90;;;;;;4974621;28;20233;-69
2022/02/21 05:22:26;;;;;;;8.40;7.60;;;4.50;99.90;;;;;;4974620;28;20240;-68
2022/02/21 05:24:52;;;;;;;11.57;6.97;;;4.50;99.90;;;;;;4995489;28;20199;-68
2022/02/21 05:27:18;;;;;;;12.27;7.57;;;4.60;99.90;;;;;;4994875;28;20184;-68
2022/02/21 05:29:44;;;;;;;18.37;7.53;;;4.60;99.90;;;;;;4975748;28;20197;-68
2022/02/21 05:32:10;;;;;;;7.73;7.07;;;4.60;99.90;;;;;;4974371;28;20181;-68
2022/02/21 05:34:39;;;;;;;9.53;7.80;;;4.60;99.90;;;;;;4991714;28;20173;-68
2022/02/21 05:37:06;;;;;;;8.37;7.23;;;4.60;99.90;;;;;;4995270;28;20713;-68
2022/02/21 05:39:32;;;;;;;11.30;7.47;;;4.60;99.90;;;;;;4980315;28;20225;-68
2022/02/21 05:41:58;;;;;;;7.70;7.20;;;4.60;99.90;;;;;;4975310;28;20169;-68
2022/02/21 05:44:23;;;;;;;8.37;7.30;;;4.60;99.90;;;;;;4987344;28;20184;-68
2022/02/21 05:46:49;;;;;;;9.07;8.23;;;4.60;99.90;;;;;;4993857;28;20705;-67
2022/02/21 05:49:15;;;;;;;12.30;8.03;;;4.60;99.90;;;;;;4993697;28;20215;-68
2022/02/21 05:51:40;;;;;;;11.87;8.10;;;4.60;99.90;;;;;;4995150;28;20288;-68
2022/02/21 05:54:06;;;;;;;10.60;7.13;;;4.60;99.90;;;;;;4983536;28;20201;-68
2022/02/21 05:56:32;;;;;;;7.80;7.17;;;4.60;99.90;;;;;;4974290;28;20657;-68
2022/02/21 05:58:58;;;;;;;11.40;8.57;;;4.60;99.90;;;;;;4976294;28;20206;-68
2022/02/21 06:01:23;;;;;;;9.67;8.17;;;4.60;99.90;;;;;;4974198;28;20183;-68
2022/02/21 06:03:49;;;;;;;8.03;7.27;;;4.60;99.90;;;;;;4979819;28;20181;-68
2022/02/21 06:06:14;;;;;;;8.10;7.30;;;4.60;99.90;;;;;;4993482;28;20193;-68
2022/02/21 06:08:40;;;;;;;9.30;7.77;;;4.60;99.90;;;;;;4989130;28;20236;-68
2022/02/21 06:11:06;;;;;;;12.60;7.30;;;4.60;99.90;;;;;;4975156;28;20352;-68
2022/02/21 06:13:32;;;;;;;8.87;8.23;;;4.70;99.90;;;;;;4974645;28;20260;-68
2022/02/21 06:15:58;;;;;;;8.93;7.30;;;4.70;99.90;;;;;;4973826;28;20166;-68
2022/02/21 06:18:24;;;;;;;8.90;7.80;;;4.70;99.90;;;;;;4975287;28;20178;-68
2022/02/21 06:20:49;;;;;;;7.63;6.80;;;4.70;99.90;;;;;;4993037;28;20724;-68
2022/02/21 06:23:15;;;;;;;8.50;7.53;;;4.80;99.90;;;;;;4993227;28;20184;-68
2022/02/21 06:25:44;;;;;;;10.23;7.37;;;4.50;99.90;;;;;;4992907;28;20227;-68
2022/02/21 06:28:11;;;;;;;8.10;7.53;;;4.00;99.90;;;;;;4993302;28;20188;-68
2022/02/21 06:30:37;;;;;;;11.00;8.37;;;3.50;99.90;;;;;;4975963;28;20263;-68
2022/02/21 06:33:03;;;;;;;7.90;7.27;;;3.30;99.90;;;;;;4974716;28;20215;-68
2022/02/21 06:35:29;;;;;;;8.60;8.07;;;3.20;99.90;;;;;;4988569;28;20181;-68
2022/02/21 06:37:56;;;;;;;9.23;8.37;;;3.20;99.90;;;;;;4992757;28;20231;-68
2022/02/21 06:40:23;;;;;;;10.23;8.13;;;3.30;99.90;;;;;;4979110;28;20296;-68
2022/02/21 06:42:49;;;;;;;9.07;8.27;;;3.20;99.90;;;;;;4984084;28;20220;-68
2022/02/21 06:45:15;;;;;;;10.43;7.47;;;3.10;99.90;;;;;;4993092;28;20177;-68
2022/02/21 06:47:41;;;;;;;9.50;8.90;;;3.00;99.90;;;;;;4983577;28;20683;-68
2022/02/21 06:50:07;;;;;;;19.73;9.37;;;2.90;99.90;;;;;;4985605;28;20213;-68
2022/02/21 06:52:33;;;;;;;11.10;10.23;;;2.90;99.90;;;;;;4986016;28;20245;-68
2022/02/21 06:54:59;;;;;;;10.50;9.73;;;2.80;99.90;;;;;;4973262;28;20247;-68
2022/02/21 06:57:26;;;;;;;16.90;10.67;;;2.80;99.90;;;;;;4987573;28;20180;-68
2022/02/21 06:59:51;;;;;;;10.83;9.07;;;2.70;99.90;;;;;;4992204;28;20209;-68
2022/02/21 07:02:17;;;;;;;11.13;8.40;;;2.70;99.90;;;;;;4980531;28;20320;-68
2022/02/21 07:04:42;;;;;;;9.50;8.10;;;2.70;99.90;;;;;;4974228;28;20186;-68
2022/02/21 07:07:08;;;;;;;12.83;8.67;;;2.70;99.90;;;;;;4983744;28;20180;-68
2022/02/21 07:09:34;;;;;;;16.70;8.30;;;2.70;99.90;;;;;;4991393;28;20197;-68
2022/02/21 07:11:59;;;;;;;15.00;7.93;;;2.80;99.90;;;;;;4972427;28;20232;-68
2022/02/21 07:14:25;;;;;;;8.93;8.07;;;2.90;99.90;;;;;;4972342;28;20210;-68
2022/02/21 07:16:52;;;;;;;16.90;10.10;;;3.20;99.90;;;;;;4973443;28;20177;-68
2022/02/21 07:19:17;;;;;;;9.60;8.17;;;3.30;99.90;;;;;;4973918;28;20236;-68
2022/02/21 07:21:43;;;;;;;10.27;9.23;;;3.50;99.90;;;;;;4990188;28;20605;-68
2022/02/21 07:24:10;;;;;;;8.83;8.00;;;3.60;99.90;;;;;;4977797;28;20182;-68
2022/02/21 07:26:36;;;;;;;9.07;8.07;;;3.80;99.90;;;;;;4973968;28;20252;-68
2022/02/21 07:29:03;;;;;;;9.97;8.37;;;3.90;99.90;;;;;;4985492;28;20211;-68
2022/02/21 07:31:29;;;;;;;8.67;7.93;;;4.10;99.90;;;;;;4991957;28;20180;-68
2022/02/21 07:33:54;;;;;;;14.00;10.03;;;4.20;99.90;;;;;;4981053;28;20771;-68
2022/02/21 07:36:20;;;;;;;8.00;7.27;;;4.30;99.90;;;;;;4976118;28;20527;-68
2022/02/21 07:38:46;;;;;;;9.60;8.67;;;4.50;99.90;;;;;;4973045;28;20185;-68
2022/02/21 07:41:11;;;;;;;11.13;8.23;;;4.70;99.90;;;;;;4972274;28;20216;-68
2022/02/21 07:43:37;;;;;;;12.47;8.03;;;4.90;99.90;;;;;;4982635;28;20180;-68
2022/02/21 07:46:03;;;;;;;8.83;8.03;;;5.00;99.90;;;;;;4991354;28;20189;-68
2022/02/21 07:48:29;;;;;;;10.23;9.10;;;5.00;99.90;;;;;;4983491;28;20256;-68
2022/02/21 07:50:55;;;;;;;8.77;8.13;;;5.00;99.90;;;;;;4973351;28;20738;-68
2022/02/21 07:53:22;;;;;;;8.40;7.40;;;5.10;99.90;;;;;;4980352;28;20235;-68
2022/02/21 07:55:48;;;;;;;8.60;7.27;;;5.10;99.90;;;;;;4991069;28;20185;-68
2022/02/21 07:58:14;;;;;;;7.83;7.03;;;5.10;99.90;;;;;;4985079;28;20655;-68
2022/02/21 08:00:40;;;;;;;9.97;6.77;;;5.20;99.90;;;;;;4971869;28;20201;-68
2022/02/21 08:03:05;;;;;;;8.60;7.17;;;5.20;99.90;;;;;;4973944;28;20669;-68
2022/02/21 08:05:34;;;;;;;11.53;7.90;;;5.30;99.90;;;;;;4971902;28;20206;-68
2022/02/21 08:07:59;;;;;;;8.70;7.90;;;5.20;99.90;;;;;;4974747;28;20632;-68
2022/02/21 08:10:25;;;;;;;9.30;8.47;;;5.20;99.90;;;;;;4984460;28;20210;-68
2022/02/21 08:12:50;;;;;;;7.13;6.70;;;5.20;99.90;;;;;;4972456;28;20244;-67
2022/02/21 08:15:16;;;;;;;8.83;8.03;;;5.20;99.90;;;;;;4991564;28;20177;-67
2022/02/21 08:17:46;;;;;;;7.53;6.67;;;5.40;99.90;;;;;;4991990;28;20173;-67
2022/02/21 08:20:20;;;;;;;7.10;6.40;;;5.70;99.90;;;;;;4987757;28;20675;-67
2022/02/21 08:22:46;;;;;;;7.10;6.70;;;5.90;99.90;;;;;;4991787;28;20268;-67
2022/02/21 08:25:13;;;;;;;7.57;6.90;;;6.20;99.90;;;;;;4990594;28;20243;-67
2022/02/21 08:27:41;;;;;;;9.67;6.93;;;6.40;99.90;;;;;;4990749;28;20192;-68
2022/02/21 08:30:10;;;;;;;7.50;6.80;;;6.30;99.90;;;;;;4972527;28;20205;-67
2022/02/21 08:32:35;;;;;;;7.87;6.33;;;6.10;99.90;;;;;;4988090;28;20636;-67
2022/02/21 08:35:01;;;;;;;9.67;6.90;;;5.90;99.90;;;;;;4992052;28;20215;-67
2022/02/21 08:37:27;;;;;;;6.90;6.50;;;5.90;99.90;;;;;;4976735;28;20185;-67
2022/02/21 08:39:52;;;;;;;7.67;6.80;;;6.20;99.90;;;;;;4972335;28;20201;-67
2022/02/21 08:42:18;;;;;;;7.37;6.87;;;6.50;99.90;;;;;;4984343;28;20192;-67
2022/02/21 08:44:44;;;;;;;7.20;6.50;;;6.80;99.90;;;;;;4991915;28;20546;-67
2022/02/21 08:47:09;;;;;;;7.20;6.60;;;6.90;99.90;;;;;;4981352;28;20185;-68
2022/02/21 08:49:35;;;;;;;7.67;6.27;;;7.00;99.90;;;;;;4972472;28;20190;-66
2022/02/21 08:52:00;;;;;;;8.17;7.30;;;7.10;99.90;;;;;;4980602;28;20176;-67
2022/02/21 08:54:26;;;;;;;8.60;7.03;;;7.30;99.90;;;;;;4991874;28;20212;-67
2022/02/21 08:56:52;;;;;;;8.07;6.90;;;7.30;99.90;;;;;;4975068;28;20239;-67
2022/02/21 08:59:18;;;;;;;7.20;6.50;;;7.30;99.90;;;;;;4975573;28;20205;-67
2022/02/21 09:01:46;;;;;;;6.80;6.20;;;7.40;99.90;;;;;;4972335;28;20173;-67
2022/02/21 09:04:12;;;;;;;7.17;6.47;;;7.60;99.90;;;;;;4976922;28;20214;-67
2022/02/21 09:06:38;;;;;;;6.47;6.17;;;7.70;99.90;;;;;;4991938;28;20256;-67
2022/02/21 09:09:04;;;;;;;6.87;6.30;;;7.60;99.90;;;;;;4987051;28;20201;-67
2022/02/21 09:11:30;;;;;;;7.87;6.40;;;7.60;99.90;;;;;;4972410;28;20189;-67
2022/02/21 09:13:55;;;;;;;8.40;7.23;;;7.80;99.90;;;;;;4973249;28;20627;-67
2022/02/21 09:16:21;;;;;;;7.10;6.40;;;7.90;99.90;;;;;;4991987;28;20209;-67
2022/02/21 09:18:47;;;;;;;7.63;6.57;;;8.00;99.90;;;;;;4991142;28;20181;-67
2022/02/21 09:21:12;;;;;;;7.77;7.00;;;8.10;99.90;;;;;;4970999;28;20178;-67
2022/02/21 09:23:38;;;;;;;9.57;7.20;;;8.30;99.90;;;;;;4972413;28;20174;-67
2022/02/21 09:26:04;;;;;;;10.73;6.97;;;8.20;99.90;;;;;;4973026;28;20714;-66
2022/02/21 09:28:30;;;;;;;6.90;6.40;;;8.20;99.90;;;;;;4972146;28;20276;-66
2022/02/21 09:30:55;;;;;;;7.70;6.93;;;8.00;99.90;;;;;;4987997;28;20181;-66
2022/02/21 09:33:24;;;;;;;8.10;7.50;;;8.20;99.90;;;;;;4990099;28;20275;-66
2022/02/21 09:35:51;;;;;;;10.43;9.50;;;8.40;99.90;;;;;;4976339;28;20209;-67
2022/02/21 09:38:17;;;;;;;10.23;6.60;;;8.50;99.90;;;;;;4972665;28;20268;-66
2022/02/21 09:40:44;;;;;;;7.70;6.50;;;8.60;99.90;;;;;;4987524;28;20621;-66
2022/02/21 09:43:12;;;;;;;7.30;6.60;;;8.60;99.90;;;;;;4994897;28;20642;-67
2022/02/21 09:45:42;;;;;;;6.10;5.60;;;8.90;99.90;;;;;;4982749;28;20216;-67
2022/02/21 09:48:08;;;;;;;9.53;7.30;;;8.90;99.90;;;;;;4975545;28;20193;-67
2022/02/21 09:50:33;;;;;;;10.73;6.40;;;8.70;99.90;;;;;;4986389;28;20259;-66
2022/02/21 09:53:04;;;;;;;7.23;6.60;;;8.30;99.90;;;;;;4994334;28;20220;-67
2022/02/21 09:55:31;;;;;;;9.73;7.57;;;8.00;99.90;;;;;;4993458;28;20215;-67
2022/02/21 09:57:57;;;;;;;7.63;6.93;;;7.80;99.90;;;;;;4994896;28;20749;-66
2022/02/21 10:00:23;;;;;;;11.80;6.70;;;7.80;99.90;;;;;;4991875;28;20283;-67
2022/02/21 10:02:51;;;;;;;8.27;6.63;;;7.80;99.90;;;;;;4994515;28;20606;-67
2022/02/21 10:05:21;;;;;;;7.07;6.43;;;7.70;99.90;;;;;;4987469;28;20236;-67
2022/02/21 10:07:47;;;;;;;8.03;6.27;;;7.70;99.90;;;;;;4975453;28;20590;-67
2022/02/21 10:10:16;;;;;;;8.83;7.20;;;7.80;99.90;;;;;;4979619;28;20219;-67
2022/02/21 10:13:03;;;;;;;10.67;6.70;;;7.70;99.90;;;;;;4992938;28;20307;-67
2022/02/21 10:15:31;;;;;;;8.10;6.70;;;7.80;99.90;;;;;;4986875;28;20178;-67
2022/02/21 10:18:18;;;;;;;7.03;6.60;;;7.90;99.90;;;;;;4975046;28;20201;-67
2022/02/21 10:20:59;;;;;;;9.73;8.10;;;7.90;99.90;;;;;;4983680;28;20216;-67
2022/02/21 10:23:30;;;;;;;13.60;6.77;;;7.90;99.90;;;;;;4994376;28;20224;-67
2022/02/21 10:25:56;;;;;;;9.43;7.13;;;8.10;99.90;;;;;;4983603;28;20194;-67
2022/02/21 10:28:42;;;;;;;12.43;6.90;;;8.40;99.90;;;;;;4982334;28;20185;-67
2022/02/21 10:31:11;;;;;;;13.93;6.97;;;8.50;99.90;;;;;;4994298;28;20184;-67
2022/02/21 10:33:37;;;;;;;8.37;6.87;;;8.60;99.90;;;;;;4983410;28;20738;-67
2022/02/21 10:36:23;;;;;;;12.17;8.73;;;8.30;99.90;;;;;;4974444;28;20182;-66
2022/02/21 10:38:51;;;;;;;8.53;7.30;;;7.90;99.90;;;;;;4983037;28;20193;-66
2022/02/21 10:41:17;;;;;;;8.87;8.20;;;7.30;99.90;;;;;;4992901;28;20169;-66
2022/02/21 10:43:43;;;;;;;10.60;7.37;;;6.80;99.90;;;;;;4985308;28;20186;-67
2022/02/21 10:46:15;;;;;;;12.70;11.50;;;6.40;99.90;;;;;;4974619;28;20181;-67
2022/02/21 10:48:44;;;;;;;9.87;7.77;;;6.20;99.90;;;;;;4981052;28;20521;-66
2022/02/21 10:51:11;;;;;;;8.67;7.73;;;6.00;99.90;;;;;;4993696;28;20544;-66
2022/02/21 10:53:42;;;;;;;7.77;7.10;;;5.90;99.90;;;;;;4990762;28;20193;-67
2022/02/21 10:56:09;;;;;;;18.07;8.70;;;5.80;99.90;;;;;;4994012;28;20215;-66
2022/02/21 10:58:34;;;;;;;13.83;7.60;;;5.70;99.90;;;;;;4986043;28;20542;-66
2022/02/21 11:01:01;;;;;;;10.07;7.87;;;5.70;99.90;;;;;;4974546;28;20249;-67
2022/02/21 11:03:29;;;;;;;9.93;8.90;;;5.70;99.90;;;;;;4978903;28;20215;-67
2022/02/21 11:05:56;;;;;;;16.60;8.33;;;5.70;99.90;;;;;;4992660;28;20187;-67
2022/02/21 11:08:22;;;;;;;7.43;7.07;;;5.70;99.90;;;;;;4988600;28;20177;-67
2022/02/21 11:11:12;;;;;;;11.40;8.33;;;5.70;99.90;;;;;;4972775;28;20645;-67
2022/02/21 11:13:41;;;;;;;14.23;7.83;;;5.70;99.90;;;;;;4979124;28;20224;-67
2022/02/21 11:16:08;;;;;;;9.67;7.73;;;5.80;99.90;;;;;;4993575;28;20208;-67
2022/02/21 11:18:34;;;;;;;12.53;8.80;;;6.00;99.90;;;;;;4988760;28;20178;-67
2022/02/21 11:21:02;;;;;;;14.57;9.73;;;6.20;99.90;;;;;;4974681;28;20481;-68
2022/02/21 11:23:28;;;;;;;9.70;7.77;;;6.30;99.90;;;;;;4993273;28;20240;-67
2022/02/21 11:26:04;;;;;;;9.93;8.83;;;6.30;99.90;;;;;;4975702;28;20184;-67
2022/02/21 11:28:51;;;;;;;9.63;8.00;;;6.20;99.90;;;;;;4993125;28;20176;-66
2022/02/21 11:31:28;;;;;;;9.50;7.73;;;6.10;99.90;;;;;;4989400;28;20271;-67
2022/02/21 11:34:09;;;;;;;12.63;8.97;;;5.90;99.90;;;;;;4973204;28;20205;-67
2022/02/21 11:36:36;;;;;;;8.73;7.87;;;5.70;99.90;;;;;;4977577;28;20185;-68
2022/02/21 11:39:24;;;;;;;7.57;7.10;;;5.60;99.90;;;;;;4991494;28;20204;-68
2022/02/21 11:42:08;;;;;;;7.13;6.73;;;5.50;99.90;;;;;;4992602;28;20172;-69
2022/02/21 11:44:53;;;;;;;11.00;10.20;;;5.30;99.90;;;;;;4991693;28;20176;-69
2022/02/21 11:47:39;;;;;;;11.33;10.37;;;5.20;99.90;;;;;;4988849;28;20651;-69
2022/02/21 11:50:24;;;;;;;9.60;8.70;;;5.10;99.90;;;;;;4973017;28;20201;-69
2022/02/21 11:52:52;;;;;;;9.73;9.13;;;5.10;99.90;;;;;;4983969;28;20682;-68
2022/02/21 11:55:35;;;;;;;8.47;7.87;;;5.10;99.90;;;;;;4993146;28;20180;-68
2022/02/21 11:58:23;;;;;;;9.90;7.83;;;5.10;99.90;;;;;;4977449;28;20177;-69
2022/02/21 12:00:55;;;;;;;7.83;7.17;;;5.10;99.90;;;;;;4972628;28;20289;-69
2022/02/21 12:03:25;;;;;;;8.50;7.83;;;5.20;99.90;;;;;;4988499;28;20216;-69
2022/02/21 12:05:57;;;;;;;12.10;11.00;;;5.20;99.90;;;;;;4992359;28;20175;-69
2022/02/21 12:08:32;;;;;;;9.13;7.97;;;5.20;99.90;;;;;;4975615;28;20177;-69
2022/02/21 12:11:17;;;;;;;9.50;8.67;;;5.10;99.90;;;;;;4971714;28;20215;-68
2022/02/21 12:13:48;;;;;;;12.33;7.57;;;5.10;99.90;;;;;;4989936;28;20201;-68
2022/02/21 12:16:15;;;;;;;9.03;8.13;;;5.10;99.90;;;;;;4983231;28;20293;-68
2022/02/21 12:18:42;;;;;;;8.57;7.70;;;5.20;99.90;;;;;;4992367;28;20556;-68
2022/02/21 12:21:22;;;;;;;11.00;8.80;;;5.30;99.90;;;;;;4976507;28;20268;-68
2022/02/21 12:23:58;;;;;;;10.23;7.90;;;5.40;99.90;;;;;;4972791;28;20227;-68
2022/02/21 12:26:40;;;;;;;10.53;8.33;;;5.50;99.90;;;;;;4987195;28;20188;-68
2022/02/21 12:29:09;;;;;;;7.63;7.07;;;5.60;99.90;;;;;;4991993;28;20220;-68
2022/02/21 12:31:36;;;;;;;12.83;7.43;;;5.60;99.90;;;;;;4975054;28;20248;-69
2022/02/21 12:34:02;;;;;;;12.27;11.13;;;5.60;99.90;;;;;;4970853;28;20221;-69
2022/02/21 12:36:37;;;;;;;10.57;7.43;;;5.70;99.90;;;;;;4986662;28;20181;-68
2022/02/21 12:39:05;;;;;;;10.03;9.13;;;5.80;99.90;;;;;;4990708;28;20200;-69
2022/02/21 12:41:36;;;;;;;8.17;7.37;;;5.80;99.90;;;;;;4989253;28;20180;-68
2022/02/21 12:44:10;;;;;;;8.57;8.07;;;5.80;99.90;;;;;;4990112;28;20192;-68
2022/02/21 12:46:39;;;;;;;9.90;7.50;;;5.80;99.90;;;;;;4976227;28;20556;-68
2022/02/21 12:49:24;;;;;;;13.17;9.43;;;5.90;99.90;;;;;;4972392;28;20205;-68
2022/02/21 12:52:06;;;;;;;8.70;8.07;;;6.00;99.90;;;;;;4987631;28;20209;-68
2022/02/21 12:54:36;;;;;;;10.43;7.70;;;6.00;99.90;;;;;;4976702;28;20216;-68